createdAt,value
2023-02-04T00:01:04.205Z,102917.31
2023-02-04T00:03:31.641Z,102928.47
2023-02-04T00:05:58.643Z,102920.34
2023-02-04T00:08:25.658Z,102917.41
2023-02-04T00:10:52.532Z,102915.44
2023-02-04T00:13:19.411Z,102926.22
2023-02-04T00:15:46.872Z,102919.22
2023-02-04T00:18:13.964Z,102927.03
2023-02-04T00:20:40.994Z,102925.22
2023-02-04T00:23:07.910Z,102919.50
2023-02-04T00:25:34.827Z,102922.53
2023-02-04T00:28:01.827Z,102927.28
2023-02-04T00:30:29.074Z,102922.09
2023-02-04T00:32:56.854Z,102926.97
2023-02-04T00:35:24.384Z,102915.13
2023-02-04T00:37:55.649Z,102923.22
2023-02-04T00:40:26.038Z,102925.44
2023-02-04T00:42:52.859Z,102923.25
2023-02-04T00:45:19.987Z,102931.19
2023-02-04T00:47:46.883Z,102923.69
2023-02-04T00:50:13.916Z,102931.47
2023-02-04T00:52:40.931Z,102929.94
2023-02-04T00:55:10.520Z,102929.91
2023-02-04T00:57:37.428Z,102927.97
2023-02-04T01:00:05.802Z,102918.84
2023-02-04T01:02:32.662Z,102918.53
2023-02-04T01:04:59.995Z,102931.25
2023-02-04T01:07:26.900Z,102928.00
2023-02-04T01:09:54.050Z,102931.78
2023-02-04T01:12:23.308Z,102936.16
2023-02-04T01:14:53.309Z,102938.31
2023-02-04T01:17:21.477Z,102944.53
2023-02-04T01:19:48.350Z,102940.69
2023-02-04T01:22:15.402Z,102946.88
2023-02-04T01:24:42.270Z,102956.66
2023-02-04T01:27:38.311Z,102951.78
2023-02-04T01:30:06.276Z,102963.75
2023-02-04T01:32:34.224Z,102960.53
2023-02-04T01:35:01.705Z,102960.19
2023-02-04T01:37:28.858Z,102966.38
2023-02-04T01:39:55.606Z,102970.97
2023-02-04T01:42:22.559Z,102975.81
2023-02-04T01:44:49.645Z,102989.75
2023-02-04T01:47:16.528Z,102983.19
2023-02-04T01:49:43.364Z,102988.81
2023-02-04T01:52:10.935Z,102989.66
2023-02-04T01:54:38.220Z,102992.16
2023-02-04T01:57:06.957Z,102981.53
2023-02-04T01:59:34.028Z,102990.25
2023-02-04T02:02:00.897Z,103003.28
2023-02-04T02:04:33.078Z,103004.31
2023-02-04T02:07:04.143Z,102996.72
2023-02-04T02:09:31.799Z,102993.00
2023-02-04T02:11:58.859Z,102996.53
2023-02-04T02:14:26.293Z,103003.31
2023-02-04T02:16:53.107Z,103006.63
2023-02-04T02:19:36.574Z,103004.97
2023-02-04T02:22:07.607Z,103010.97
2023-02-04T02:24:35.718Z,103011.75
2023-02-04T02:27:07.444Z,103015.56
2023-02-04T02:29:34.844Z,103026.72
2023-02-04T02:32:01.754Z,103017.19
2023-02-04T02:34:30.640Z,103014.19
2023-02-04T02:36:58.695Z,103022.91
2023-02-04T02:39:26.363Z,103019.38
2023-02-04T02:41:53.676Z,103018.81
2023-02-04T02:44:20.639Z,103017.69
2023-02-04T02:46:47.582Z,103026.41
2023-02-04T02:49:16.530Z,103020.44
2023-02-04T02:51:44.111Z,103020.97
2023-02-04T02:54:26.929Z,103022.88
2023-02-04T02:56:56.888Z,103016.88
2023-02-04T02:59:25.062Z,103009.00
2023-02-04T03:01:55.628Z,103017.44
2023-02-04T03:04:22.933Z,103028.03
2023-02-04T03:06:51.057Z,103028.81
2023-02-04T03:09:18.983Z,103017.66
2023-02-04T03:11:47.573Z,103026.91
2023-02-04T03:14:14.805Z,103021.22
2023-02-04T03:16:41.990Z,103023.13
2023-02-04T03:19:09.122Z,103022.59
2023-02-04T03:21:36.466Z,103031.03
2023-02-04T03:24:04.661Z,103025.63
2023-02-04T03:26:31.871Z,103025.91
2023-02-04T03:28:59.221Z,103029.69
2023-02-04T03:31:26.269Z,103041.94
2023-02-04T03:33:53.720Z,103030.22
2023-02-04T03:36:20.455Z,103040.81
2023-02-04T03:38:47.264Z,103047.06
2023-02-04T03:41:14.084Z,103041.03
2023-02-04T03:43:40.991Z,103045.41
2023-02-04T03:46:07.796Z,103043.53
2023-02-04T03:48:34.747Z,103050.31
2023-02-04T03:51:01.818Z,103042.97
2023-02-04T03:53:28.709Z,103047.59
2023-02-04T03:55:55.516Z,103045.16
2023-02-04T03:58:22.496Z,103047.31
2023-02-04T04:00:49.410Z,103051.94
2023-02-04T04:03:16.350Z,103047.88
2023-02-04T04:05:43.945Z,103056.84
2023-02-04T04:08:11.024Z,103050.03
2023-02-04T04:10:37.977Z,103057.13
2023-02-04T04:13:04.745Z,103065.56
2023-02-04T04:15:33.984Z,103065.56
2023-02-04T04:18:00.754Z,103063.09
2023-02-04T04:20:29.188Z,103065.31
2023-02-04T04:22:56.144Z,103065.56
2023-02-04T04:25:22.928Z,103071.56
2023-02-04T04:27:49.828Z,103076.44
2023-02-04T04:30:17.011Z,103078.03
2023-02-04T04:32:43.846Z,103082.16
2023-02-04T04:35:10.707Z,103073.19
2023-02-04T04:37:37.548Z,103075.91
2023-02-04T04:40:04.666Z,103074.28
2023-02-04T04:42:31.558Z,103078.09
2023-02-04T04:44:58.448Z,103071.03
2023-02-04T04:47:25.349Z,103070.03
2023-02-04T04:49:52.108Z,103064.63
2023-02-04T04:52:18.977Z,103054.78
2023-02-04T04:54:46.060Z,103063.53
2023-02-04T04:57:12.896Z,103065.19
2023-02-04T04:59:39.664Z,103065.34
2023-02-04T05:02:06.599Z,103063.22
2023-02-04T05:04:33.413Z,103062.34
2023-02-04T05:07:00.226Z,103057.44
2023-02-04T05:09:27.128Z,103060.06
2023-02-04T05:11:54.166Z,103066.03
2023-02-04T05:14:20.937Z,103066.38
2023-02-04T05:16:47.823Z,103071.28
2023-02-04T05:19:14.802Z,103069.94
2023-02-04T05:21:41.852Z,103068.56
2023-02-04T05:24:09.444Z,103084.84
2023-02-04T05:26:36.292Z,103082.13
2023-02-04T05:29:03.314Z,103077.25
2023-02-04T05:31:30.756Z,103076.47
2023-02-04T05:33:58.242Z,103076.19
2023-02-04T05:36:25.109Z,103084.88
2023-02-04T05:38:51.966Z,103085.44
2023-02-04T05:41:18.771Z,103085.41
2023-02-04T05:43:45.699Z,103098.75
2023-02-04T05:46:12.607Z,103088.44
2023-02-04T05:48:40.453Z,103087.06
2023-02-04T05:51:07.453Z,103097.66
2023-02-04T05:53:34.224Z,103106.63
2023-02-04T05:56:01.160Z,103094.69
2023-02-04T05:58:33.527Z,103092.22
2023-02-04T06:01:04.345Z,103101.19
2023-02-04T06:03:31.668Z,103096.06
2023-02-04T06:05:59.264Z,103100.41
2023-02-04T06:08:26.213Z,103093.88
2023-02-04T06:10:52.930Z,103108.28
2023-02-04T06:13:20.593Z,103113.44
2023-02-04T06:15:47.372Z,103107.88
2023-02-04T06:18:14.305Z,103104.44
2023-02-04T06:20:41.275Z,103105.03
2023-02-04T06:23:08.277Z,103105.56
2023-02-04T06:25:35.386Z,103098.91
2023-02-04T06:28:02.266Z,103103.13
2023-02-04T06:30:29.070Z,103112.03
2023-02-04T06:32:55.913Z,103112.63
2023-02-04T06:35:22.706Z,103125.41
2023-02-04T06:37:50.016Z,103128.41
2023-02-04T06:40:16.991Z,103137.66
2023-02-04T06:42:43.918Z,103137.63
2023-02-04T06:45:10.718Z,103145.53
2023-02-04T06:47:37.648Z,103156.16
2023-02-04T06:50:04.604Z,103152.88
2023-02-04T06:52:31.296Z,103152.59
2023-02-04T06:54:58.098Z,103155.31
2023-02-04T06:57:24.841Z,103157.78
2023-02-04T06:59:52.118Z,103169.47
2023-02-04T07:02:19.144Z,103165.41
2023-02-04T07:04:47.653Z,103168.66
2023-02-04T07:07:14.564Z,103167.59
2023-02-04T07:09:42.637Z,103171.66
2023-02-04T07:12:09.880Z,103163.50
2023-02-04T07:14:36.754Z,103162.41
2023-02-04T07:17:03.748Z,103183.09
2023-02-04T07:19:30.635Z,103183.34
2023-02-04T07:21:57.855Z,103175.72
2023-02-04T07:24:25.250Z,103186.91
2023-02-04T07:26:52.495Z,103183.91
2023-02-04T07:29:25.232Z,103186.34
2023-02-04T07:31:53.278Z,103192.84
2023-02-04T07:34:21.109Z,103192.34
2023-02-04T07:36:48.192Z,103193.16
2023-02-04T07:39:15.833Z,103198.59
2023-02-04T07:41:42.749Z,103185.81
2023-02-04T07:44:11.908Z,103189.63
2023-02-04T07:46:52.868Z,103186.84
2023-02-04T07:52:23.247Z,103186.03
2023-02-04T07:54:50.404Z,103199.91
2023-02-04T07:57:22.114Z,103198.28
2023-02-04T07:59:49.220Z,103195.88
2023-02-04T08:02:16.124Z,103203.22
2023-02-04T08:04:42.975Z,103200.75
2023-02-04T08:07:09.950Z,103209.19
2023-02-04T08:09:37.200Z,103199.41
2023-02-04T08:12:04.585Z,103216.81
2023-02-04T08:14:31.495Z,103212.94
2023-02-04T08:16:58.382Z,103208.84
2023-02-04T08:19:25.157Z,103206.72
2023-02-04T08:21:51.946Z,103215.13
2023-02-04T08:24:18.912Z,103211.06
2023-02-04T08:26:45.813Z,103201.00
2023-02-04T08:29:12.855Z,103213.00
2023-02-04T08:31:40.627Z,103217.59
2023-02-04T08:34:08.230Z,103211.53
2023-02-04T08:36:39.445Z,103215.91
2023-02-04T08:39:06.736Z,103212.31
2023-02-04T08:41:33.728Z,103216.59
2023-02-04T08:44:00.567Z,103218.03
2023-02-04T08:46:27.575Z,103222.84
2023-02-04T08:48:54.910Z,103218.09
2023-02-04T08:51:21.695Z,103229.53
2023-02-04T08:53:48.542Z,103231.94
2023-02-04T08:56:20.563Z,103229.00
2023-02-04T08:58:53.080Z,103234.47
2023-02-04T09:01:20.420Z,103242.09
2023-02-04T09:03:47.218Z,103237.75
2023-02-04T09:06:14.675Z,103251.34
2023-02-04T09:08:41.523Z,103254.59
2023-02-04T09:11:10.775Z,103252.06
2023-02-04T09:13:38.114Z,103264.28
2023-02-04T09:16:05.391Z,103266.31
2023-02-04T09:18:32.821Z,103267.41
2023-02-04T09:20:59.823Z,103269.59
2023-02-04T09:23:26.813Z,103274.25
2023-02-04T09:25:54.676Z,103276.75
2023-02-04T09:28:21.598Z,103277.56
2023-02-04T09:30:48.604Z,103281.63
2023-02-04T09:33:17.163Z,103281.38
2023-02-04T09:35:44.718Z,103274.56
2023-02-04T09:38:11.576Z,103271.84
2023-02-04T09:40:43.321Z,103282.44
2023-02-04T09:43:15.293Z,103270.22
2023-02-04T09:45:42.220Z,103266.66
2023-02-04T09:48:12.345Z,103267.78
2023-02-04T09:50:39.283Z,103276.19
2023-02-04T09:53:06.986Z,103283.84
2023-02-04T09:55:36.346Z,103280.03
2023-02-04T09:58:04.825Z,103284.66
2023-02-04T10:00:32.183Z,103289.25
2023-02-04T10:03:01.156Z,103286.28
2023-02-04T10:05:32.964Z,103294.97
2023-02-04T10:08:00.511Z,103305.63
2023-02-04T10:10:27.965Z,103296.91
2023-02-04T10:12:57.550Z,103296.88
2023-02-04T10:15:24.362Z,103295.53
2023-02-04T10:18:20.534Z,103303.44
2023-02-04T10:20:47.357Z,103304.25
2023-02-04T10:23:14.209Z,103299.88
2023-02-04T10:25:41.026Z,103296.34
2023-02-04T10:28:07.849Z,103300.72
2023-02-04T10:30:43.802Z,103309.13
2023-02-04T10:33:24.861Z,103299.91
2023-02-04T10:35:53.408Z,103307.78
2023-02-04T10:38:20.360Z,103298.53
2023-02-04T10:40:47.806Z,103306.16
2023-02-04T10:43:21.754Z,103313.25
2023-02-04T10:45:57.046Z,103306.16
2023-02-04T10:48:23.990Z,103311.59
2023-02-04T10:50:51.170Z,103316.78
2023-02-04T10:53:41.784Z,103313.44
2023-02-04T10:56:20.904Z,103312.59
2023-02-04T10:58:48.766Z,103309.16
2023-02-04T11:01:16.974Z,103319.84
2023-02-04T11:03:47.080Z,103317.69
2023-02-04T11:06:23.535Z,103315.84
2023-02-04T11:08:53.445Z,103320.22
2023-02-04T11:11:24.488Z,103313.75
2023-02-04T11:13:51.496Z,103316.19
2023-02-04T11:16:18.364Z,103315.94
2023-02-04T11:18:50.919Z,103308.03
2023-02-04T11:21:43.988Z,103307.22
2023-02-04T11:24:19.163Z,103313.22
2023-02-04T11:27:05.397Z,103312.94
2023-02-04T11:29:38.955Z,103319.97
2023-02-04T11:32:13.382Z,103311.31
2023-02-04T11:34:55.941Z,103309.13
2023-02-04T11:37:35.546Z,103299.88
2023-02-04T11:40:14.583Z,103307.22
2023-02-04T11:42:44.568Z,103302.06
2023-02-04T11:45:21.772Z,103299.06
2023-02-04T11:47:49.056Z,103304.53
2023-02-04T11:50:29.298Z,103309.69
2023-02-04T11:52:57.434Z,103295.25
2023-02-04T11:55:25.880Z,103299.88
2023-02-04T11:57:54.503Z,103295.50
2023-02-04T12:00:34.446Z,103308.75
2023-02-04T12:03:06.345Z,103304.84
2023-02-04T12:05:44.918Z,103296.81
2023-02-04T12:08:14.092Z,103298.53
2023-02-04T12:10:48.931Z,103298.53
2023-02-04T12:13:23.781Z,103292.25
2023-02-04T12:16:05.800Z,103292.72
2023-02-04T12:18:34.449Z,103303.84
2023-02-04T12:21:02.676Z,103294.81
2023-02-04T12:23:30.779Z,103297.56
2023-02-04T12:25:58.002Z,103291.66
2023-02-04T12:28:30.566Z,103297.97
2023-02-04T12:30:57.624Z,103304.78
2023-02-04T12:33:35.906Z,103300.16
2023-02-04T12:36:03.462Z,103306.00
2023-02-04T12:38:30.378Z,103308.59
2023-02-04T12:40:57.384Z,103308.06
2023-02-04T12:43:28.450Z,103310.78
2023-02-04T12:49:32.720Z,103305.75
2023-02-04T12:52:05.657Z,103315.06
2023-02-04T12:54:37.055Z,103318.94
2023-02-04T12:57:08.345Z,103302.06
2023-02-04T12:59:37.029Z,103316.22
2023-02-04T13:02:04.073Z,103299.31
2023-02-04T13:04:31.338Z,103305.63
2023-02-04T13:07:03.804Z,103318.13
2023-02-04T13:09:39.412Z,103292.50
2023-02-04T13:12:09.893Z,103312.13
2023-02-04T13:14:37.325Z,103283.50
2023-02-04T13:17:04.133Z,103309.97
2023-02-04T13:19:32.560Z,103292.81
2023-02-04T13:22:00.013Z,103299.88
2023-02-04T13:24:27.230Z,103299.31
2023-02-04T13:26:54.354Z,103291.72
2023-02-04T13:29:24.508Z,103296.06
2023-02-04T13:31:52.196Z,103288.69
2023-02-04T13:34:19.771Z,103285.69
2023-02-04T13:36:46.828Z,103290.06
2023-02-04T13:39:13.759Z,103288.44
2023-02-04T13:41:41.435Z,103287.63
2023-02-04T13:44:08.417Z,103287.63
2023-02-04T13:46:35.166Z,103284.59
2023-02-04T13:49:02.050Z,103287.88
2023-02-04T13:51:31.285Z,103285.69
2023-02-04T13:53:59.626Z,103268.00
2023-02-04T13:56:27.579Z,103268.84
2023-02-04T13:58:59.484Z,103278.88
2023-02-04T14:01:28.783Z,103266.09
2023-02-04T14:03:58.174Z,103265.75
2023-02-04T14:06:33.531Z,103264.13
2023-02-04T14:09:04.894Z,103269.66
2023-02-04T14:11:55.816Z,103281.91
2023-02-04T14:14:23.354Z,103272.66
2023-02-04T14:16:50.536Z,103272.59
2023-02-04T14:19:17.530Z,103281.28
2023-02-04T14:21:47.499Z,103272.34
2023-02-04T14:24:14.436Z,103265.75
2023-02-04T14:26:41.173Z,103272.31
2023-02-04T14:29:08.094Z,103279.72
2023-02-04T14:31:36.671Z,103273.47
2023-02-04T14:34:03.644Z,103269.66
2023-02-04T14:36:30.491Z,103278.84
2023-02-04T14:38:57.349Z,103272.59
2023-02-04T14:41:26.417Z,103275.03
2023-02-04T14:43:53.819Z,103272.34
2023-02-04T14:46:21.340Z,103280.00
2023-02-04T14:48:48.417Z,103283.53
2023-02-04T14:51:15.269Z,103289.22
2023-02-04T14:53:46.071Z,103294.91
2023-02-04T14:56:15.021Z,103299.84
2023-02-04T14:58:42.220Z,103293.50
2023-02-04T15:01:09.179Z,103292.13
2023-02-04T15:03:36.124Z,103286.44
2023-02-04T15:06:03.117Z,103285.84
2023-02-04T15:08:29.920Z,103289.13
2023-02-04T15:10:57.083Z,103297.31
2023-02-04T15:13:23.956Z,103298.94
2023-02-04T15:15:50.896Z,103292.13
2023-02-04T15:18:17.802Z,103305.19
2023-02-04T15:20:44.670Z,103303.34
2023-02-04T15:23:13.246Z,103293.00
2023-02-04T15:25:40.376Z,103292.75
2023-02-04T15:28:07.510Z,103295.13
2023-02-04T15:30:34.981Z,103301.94
2023-02-04T15:33:02.052Z,103300.31
2023-02-04T15:35:29.058Z,103294.31
2023-02-04T15:37:55.855Z,103296.53
2023-02-04T15:40:22.801Z,103298.44
2023-02-04T15:42:50.955Z,103291.06
2023-02-04T15:45:17.985Z,103295.16
2023-02-04T15:47:44.834Z,103303.88
2023-02-04T15:50:14.996Z,103292.97
2023-02-04T15:52:41.982Z,103305.22
2023-02-04T15:55:09.103Z,103297.84
2023-02-04T15:57:37.454Z,103300.31
2023-02-04T16:00:05.781Z,103298.75
2023-02-04T16:02:32.670Z,103301.50
2023-02-04T16:04:59.619Z,103295.78
2023-02-04T16:07:26.714Z,103294.06
2023-02-04T16:09:53.604Z,103309.31
2023-02-04T16:12:20.544Z,103307.41
2023-02-04T16:14:47.441Z,103310.16
2023-02-04T16:17:14.411Z,103305.25
2023-02-04T16:19:41.512Z,103303.34
2023-02-04T16:22:08.464Z,103309.31
2023-02-04T16:24:35.267Z,103313.41
2023-02-04T16:27:02.156Z,103316.66
2023-02-04T16:29:29.072Z,103316.13
2023-02-04T16:31:58.000Z,103318.31
2023-02-04T16:34:25.838Z,103312.59
2023-02-04T16:36:52.858Z,103320.75
2023-02-04T16:39:20.166Z,103321.84
2023-02-04T16:41:47.144Z,103317.78
2023-02-04T16:44:13.880Z,103328.16
2023-02-04T16:46:41.023Z,103324.06
2023-02-04T16:49:08.027Z,103322.16
2023-02-04T16:51:35.105Z,103330.31
2023-02-04T16:54:01.964Z,103337.97
2023-02-04T16:56:39.876Z,103329.81
2023-02-04T16:59:06.849Z,103336.06
2023-02-04T17:01:33.776Z,103340.69
2023-02-04T17:04:00.916Z,103338.81
2023-02-04T17:06:29.031Z,103345.06
2023-02-04T17:08:55.913Z,103346.44
2023-02-04T17:11:29.825Z,103345.34
2023-02-04T17:13:57.660Z,103353.50
2023-02-04T17:16:25.105Z,103350.78
2023-02-04T17:18:52.145Z,103339.88
2023-02-04T17:21:18.857Z,103346.97
2023-02-04T17:23:45.655Z,103358.69
2023-02-04T17:26:13.219Z,103360.34
2023-02-04T17:28:40.521Z,103367.69
2023-02-04T17:31:07.612Z,103371.78
2023-02-04T17:33:34.770Z,103372.59
2023-02-04T17:36:02.417Z,103370.16
2023-02-04T17:38:29.576Z,103368.78
2023-02-04T17:40:56.333Z,103370.16
2023-02-04T17:43:24.666Z,103377.53
2023-02-04T17:45:51.474Z,103372.34
2023-02-04T17:48:18.942Z,103374.53
2023-02-04T17:50:45.713Z,103374.22
2023-02-04T17:53:12.529Z,103377.78
2023-02-04T17:55:42.039Z,103383.50
2023-02-04T17:58:11.935Z,103385.69
2023-02-04T18:00:39.869Z,103376.41
2023-02-04T18:03:11.770Z,103381.31
2023-02-04T18:05:42.653Z,103384.84
2023-02-04T18:08:21.261Z,103382.16
2023-02-04T18:10:53.194Z,103385.69
2023-02-04T18:13:24.166Z,103397.13
2023-02-04T18:15:58.181Z,103391.66
2023-02-04T18:18:32.554Z,103379.97
2023-02-04T18:21:02.838Z,103389.22
2023-02-04T18:23:32.081Z,103406.91
2023-02-04T18:26:12.415Z,103402.56
2023-02-04T18:28:46.354Z,103404.47
2023-02-04T18:31:52.694Z,103405.56
2023-02-04T18:34:27.632Z,103404.22
2023-02-04T18:36:55.537Z,103396.59
2023-02-04T18:39:28.140Z,103395.22
2023-02-04T18:41:55.405Z,103387.50
2023-02-04T18:44:30.659Z,103381.81
2023-02-04T18:46:57.904Z,103389.97
2023-02-04T18:49:30.579Z,103387.44
2023-02-04T18:51:59.009Z,103397.84
2023-02-04T18:54:38.901Z,103387.00
2023-02-04T18:57:18.401Z,103397.56
2023-02-04T18:59:46.213Z,103389.03
2023-02-04T19:02:41.564Z,103403.03
2023-02-04T19:05:28.786Z,103397.75
2023-02-04T19:08:14.743Z,103400.47
2023-02-04T19:10:42.470Z,103397.06
2023-02-04T19:13:22.654Z,103401.47
2023-02-04T19:16:16.132Z,103396.03
2023-02-04T19:18:43.206Z,103408.13
2023-02-04T19:21:17.924Z,103407.13
2023-02-04T19:23:45.048Z,103397.34
2023-02-04T19:26:31.367Z,103408.81
2023-02-04T19:28:58.331Z,103406.06
2023-02-04T19:31:34.487Z,103396.91
2023-02-04T19:34:17.703Z,103406.56
2023-02-04T19:36:44.831Z,103402.16
2023-02-04T19:39:21.804Z,103410.41
2023-02-04T19:41:50.233Z,103409.31
2023-02-04T19:44:46.325Z,103411.78
2023-02-04T19:47:35.459Z,103411.47
2023-02-04T19:50:14.265Z,103415.53
2023-02-04T19:52:49.484Z,103419.19
2023-02-04T19:55:34.942Z,103410.97
2023-02-04T19:58:21.060Z,103419.66
2023-02-04T20:01:02.366Z,103423.13
2023-02-04T20:03:37.065Z,103426.91
2023-02-04T20:06:30.852Z,103423.41
2023-02-04T20:09:26.660Z,103415.97
2023-02-04T20:11:58.251Z,103418.00
2023-02-04T20:14:36.742Z,103419.88
2023-02-04T20:17:17.047Z,103411.03
2023-02-04T20:19:44.343Z,103416.91
2023-02-04T20:22:17.512Z,103410.06
2023-02-04T20:24:59.331Z,103409.56
2023-02-04T20:27:37.797Z,103415.84
2023-02-04T20:30:08.077Z,103407.34
2023-02-04T20:32:49.957Z,103411.72
2023-02-04T20:35:16.718Z,103414.34
2023-02-04T20:37:44.182Z,103408.56
2023-02-04T20:40:20.110Z,103403.50
2023-02-04T20:42:54.937Z,103405.44
2023-02-04T20:45:26.596Z,103402.41
2023-02-04T20:47:57.461Z,103403.22
2023-02-04T20:50:52.213Z,103398.75
2023-02-04T20:53:36.693Z,103394.88
2023-02-04T20:56:16.412Z,103396.69
2023-02-04T20:58:44.532Z,103411.72
2023-02-04T21:01:23.213Z,103425.22
2023-02-04T21:03:51.320Z,103430.91
2023-02-04T21:06:29.824Z,103429.03
2023-02-04T21:09:03.145Z,103428.75
2023-02-04T21:11:29.947Z,103425.59
2023-02-04T21:13:56.790Z,103425.63
2023-02-04T21:16:23.599Z,103420.69
2023-02-04T21:18:50.862Z,103434.47
2023-02-04T21:21:18.298Z,103418.91
2023-02-04T21:23:45.088Z,103419.81
2023-02-04T21:26:12.925Z,103408.84
2023-02-04T21:28:39.790Z,103413.69
2023-02-04T21:31:06.880Z,103415.84
2023-02-04T21:33:33.713Z,103419.19
2023-02-04T21:36:00.937Z,103421.78
2023-02-04T21:38:27.796Z,103420.63
2023-02-04T21:40:54.620Z,103417.44
2023-02-04T21:43:21.770Z,103420.50
2023-02-04T21:45:48.698Z,103421.91
2023-02-04T21:48:15.585Z,103408.56
2023-02-04T21:50:42.457Z,103405.06
2023-02-04T21:53:09.405Z,103404.50
2023-02-04T21:55:36.802Z,103401.47
2023-02-04T21:58:04.557Z,103410.84
2023-02-04T22:00:31.505Z,103404.50
2023-02-04T22:02:58.477Z,103404.25
2023-02-04T22:05:25.583Z,103416.16
2023-02-04T22:07:53.194Z,103416.84
2023-02-04T22:10:22.809Z,103426.44
2023-02-04T22:12:49.865Z,103419.50
2023-02-04T22:15:17.161Z,103426.63
2023-02-04T22:17:44.854Z,103431.50
2023-02-04T22:20:12.641Z,103430.78
2023-02-04T22:22:39.570Z,103427.06
2023-02-04T22:25:06.820Z,103428.38
2023-02-04T22:27:33.515Z,103422.09
2023-02-04T22:30:03.320Z,103430.84
2023-02-04T22:32:30.504Z,103425.56
2023-02-04T22:34:57.394Z,103429.91
2023-02-04T22:37:24.785Z,103430.03
2023-02-04T22:39:51.762Z,103430.47
2023-02-04T22:42:18.427Z,103435.13
2023-02-04T22:44:45.331Z,103431.97
2023-02-04T22:47:13.124Z,103433.53
2023-02-04T22:49:40.026Z,103433.63
2023-02-04T22:52:06.902Z,103439.97
2023-02-04T22:54:33.948Z,103436.66
2023-02-04T22:57:00.998Z,103448.78
2023-02-04T22:59:29.181Z,103445.31
2023-02-04T23:01:56.570Z,103447.19
2023-02-04T23:04:23.610Z,103452.59
2023-02-04T23:06:51.326Z,103447.47
2023-02-04T23:09:18.258Z,103457.00
2023-02-04T23:11:50.287Z,103455.56
2023-02-04T23:14:18.008Z,103464.69
2023-02-04T23:16:47.432Z,103451.34
2023-02-04T23:19:14.841Z,103457.81
2023-02-04T23:21:41.790Z,103458.31
2023-02-04T23:24:08.834Z,103443.22
2023-02-04T23:26:36.000Z,103448.06
2023-02-04T23:29:03.160Z,103435.75
2023-02-04T23:31:29.926Z,103438.47
2023-02-04T23:33:56.718Z,103428.13
2023-02-04T23:36:23.557Z,103433.94
2023-02-04T23:38:50.397Z,103433.69
2023-02-04T23:41:17.388Z,103432.88
2023-02-04T23:43:44.154Z,103439.31
2023-02-04T23:46:11.489Z,103435.44
2023-02-04T23:48:38.350Z,103432.13
2023-02-04T23:51:06.214Z,103430.09
2023-02-04T23:53:32.962Z,103423.81
2023-02-04T23:55:59.869Z,103423.81
2023-02-04T23:58:26.750Z,103420.88
